createdAt,value
2017-12-22T00:00:53.104Z,7.36
2017-12-22T00:03:20.667Z,7.35
2017-12-22T00:05:46.555Z,7.35
2017-12-22T00:08:16.309Z,7.36
2017-12-22T00:10:42.179Z,7.36
2017-12-22T00:13:11.102Z,7.39
2017-12-22T00:15:48.046Z,7.43
2017-12-22T00:18:14.000Z,7.39
2017-12-22T00:20:39.887Z,7.41
2017-12-22T00:23:05.824Z,7.42
2017-12-22T00:25:31.685Z,7.42
2017-12-22T00:27:57.575Z,7.35
2017-12-22T00:30:23.614Z,7.28
2017-12-22T00:32:49.458Z,7.30
2017-12-22T00:35:15.313Z,7.28
2017-12-22T00:37:41.205Z,7.26
2017-12-22T00:40:07.083Z,7.25
2017-12-22T00:42:32.940Z,7.19
2017-12-22T00:45:00.627Z,7.20
2017-12-22T00:47:28.697Z,7.20
2017-12-22T00:49:54.941Z,7.16
2017-12-22T00:52:20.807Z,7.14
2017-12-22T00:54:46.641Z,7.15
2017-12-22T00:57:12.479Z,7.07
2017-12-22T00:59:38.323Z,7.08
2017-12-22T01:02:07.875Z,7.08
2017-12-22T01:04:33.744Z,7.10
2017-12-22T01:07:03.146Z,7.15
2017-12-22T01:09:29.057Z,7.20
2017-12-22T01:11:56.428Z,7.29
2017-12-22T01:14:22.276Z,7.38
2017-12-22T01:16:56.980Z,7.43
2017-12-22T01:19:22.855Z,7.48
2017-12-22T01:21:48.770Z,7.50
2017-12-22T01:24:14.697Z,7.52
2017-12-22T01:26:40.612Z,7.51
2017-12-22T01:29:14.065Z,7.61
2017-12-22T01:31:39.998Z,7.67
2017-12-22T01:34:05.990Z,7.72
2017-12-22T01:36:31.861Z,7.68
2017-12-22T01:38:57.769Z,7.64
2017-12-22T01:41:23.647Z,7.68
2017-12-22T01:43:49.508Z,7.73
2017-12-22T01:46:15.373Z,7.77
2017-12-22T01:48:41.306Z,7.76
2017-12-22T01:51:07.211Z,7.71
2017-12-22T01:53:35.925Z,7.72
2017-12-22T01:56:01.820Z,7.67
2017-12-22T01:58:30.722Z,7.58
2017-12-22T02:00:56.602Z,7.56
2017-12-22T02:03:25.589Z,7.58
2017-12-22T02:05:51.493Z,7.66
2017-12-22T02:08:17.400Z,7.62
2017-12-22T02:10:43.258Z,7.69
2017-12-22T02:13:12.741Z,7.74
2017-12-22T02:15:38.592Z,7.72
2017-12-22T02:18:04.448Z,7.74
2017-12-22T02:20:33.640Z,7.75
2017-12-22T02:22:59.551Z,7.74
2017-12-22T02:25:26.855Z,7.76
2017-12-22T02:27:52.786Z,7.80
2017-12-22T02:30:22.161Z,7.79
2017-12-22T02:32:48.010Z,7.78
2017-12-22T02:35:16.124Z,7.82
2017-12-22T02:37:42.047Z,7.82
2017-12-22T02:40:10.921Z,7.77
2017-12-22T02:42:36.795Z,7.76
2017-12-22T02:45:02.652Z,7.77
2017-12-22T02:47:28.582Z,7.82
2017-12-22T02:49:54.439Z,7.80
2017-12-22T02:52:23.473Z,7.78
2017-12-22T02:54:49.478Z,7.75
2017-12-22T02:57:26.166Z,7.70
2017-12-22T02:59:52.193Z,7.79
2017-12-22T03:02:18.089Z,7.78
2017-12-22T03:04:43.952Z,7.72
2017-12-22T03:07:09.852Z,7.71
2017-12-22T03:09:35.795Z,7.70
2017-12-22T03:12:01.692Z,7.69
2017-12-22T03:14:27.573Z,7.72
2017-12-22T03:16:57.487Z,7.69
2017-12-22T03:19:23.387Z,7.73
2017-12-22T03:21:49.248Z,7.70
2017-12-22T03:24:15.199Z,7.60
2017-12-22T03:26:41.095Z,7.60
2017-12-22T03:29:07.769Z,7.55
2017-12-22T03:31:33.648Z,7.38
2017-12-22T03:34:02.395Z,7.43
2017-12-22T03:36:28.273Z,7.41
2017-12-22T03:38:57.319Z,7.45
2017-12-22T03:41:23.179Z,7.54
2017-12-22T03:43:51.776Z,7.47
2017-12-22T03:46:17.673Z,7.33
2017-12-22T03:48:46.452Z,7.30
2017-12-22T03:51:12.292Z,7.37
2017-12-22T03:53:40.812Z,7.36
2017-12-22T03:56:06.655Z,7.47
2017-12-22T03:58:32.571Z,7.53
2017-12-22T04:00:58.504Z,7.44
2017-12-22T04:03:24.372Z,7.43
2017-12-22T04:05:54.023Z,7.40
2017-12-22T04:08:19.881Z,7.44
2017-12-22T04:10:49.185Z,7.44
2017-12-22T04:13:15.056Z,7.42
2017-12-22T04:15:42.501Z,7.48
2017-12-22T04:18:08.404Z,7.48
2017-12-22T04:20:37.128Z,7.39
2017-12-22T04:23:03.890Z,7.41
2017-12-22T04:25:32.978Z,7.45
2017-12-22T04:27:58.846Z,7.44
2017-12-22T04:30:26.688Z,7.43
2017-12-22T04:32:52.528Z,7.39
2017-12-22T04:35:18.416Z,7.35
2017-12-22T04:37:44.280Z,7.37
2017-12-22T04:40:10.130Z,7.38
2017-12-22T04:42:39.411Z,7.49
2017-12-22T04:45:12.312Z,7.36
2017-12-22T04:47:38.228Z,7.32
2017-12-22T04:50:04.114Z,7.33
2017-12-22T04:52:29.989Z,7.34
2017-12-22T04:54:55.899Z,7.42
2017-12-22T04:57:22.698Z,7.38
2017-12-22T04:59:48.591Z,7.37
2017-12-22T05:02:18.363Z,7.34
2017-12-22T05:04:44.216Z,7.27
2017-12-22T05:07:20.748Z,7.27
2017-12-22T05:09:46.652Z,7.31
2017-12-22T05:12:12.542Z,7.29
2017-12-22T05:14:38.513Z,7.27
2017-12-22T05:17:04.397Z,7.25
2017-12-22T05:19:30.281Z,7.30
2017-12-22T05:21:56.333Z,7.24
2017-12-22T05:24:22.192Z,7.22
2017-12-22T05:26:48.109Z,7.11
2017-12-22T05:29:14.153Z,7.10
2017-12-22T05:31:40.046Z,7.18
2017-12-22T05:34:09.497Z,7.22
2017-12-22T05:36:35.386Z,7.25
2017-12-22T05:39:03.368Z,7.22
2017-12-22T05:41:29.252Z,7.09
2017-12-22T05:43:57.337Z,7.02
2017-12-22T05:46:23.183Z,6.96
2017-12-22T05:48:49.052Z,6.97
2017-12-22T05:51:18.334Z,6.87
2017-12-22T05:53:44.247Z,6.90
2017-12-22T05:56:10.145Z,6.92
2017-12-22T05:58:36.002Z,6.92
2017-12-22T06:01:05.423Z,6.94
2017-12-22T06:03:31.275Z,6.96
2017-12-22T06:06:00.358Z,6.89
2017-12-22T06:08:26.251Z,6.90
2017-12-22T06:10:53.208Z,6.89
2017-12-22T06:13:20.034Z,7.02
2017-12-22T06:15:49.598Z,7.15
2017-12-22T06:18:15.526Z,7.25
2017-12-22T06:20:43.702Z,7.22
2017-12-22T06:23:09.636Z,7.20
2017-12-22T06:25:35.527Z,7.14
2017-12-22T06:28:01.462Z,7.11
2017-12-22T06:30:27.426Z,7.04
2017-12-22T06:32:55.035Z,7.06
2017-12-22T06:35:36.632Z,7.05
2017-12-22T06:38:02.528Z,7.03
2017-12-22T06:40:28.406Z,7.05
2017-12-22T06:42:54.289Z,7.03
2017-12-22T06:45:20.308Z,6.98
2017-12-22T06:47:46.199Z,6.98
2017-12-22T06:50:12.044Z,6.94
2017-12-22T06:52:37.904Z,6.95
2017-12-22T06:55:07.903Z,6.99
2017-12-22T06:57:33.743Z,7.00
2017-12-22T06:59:59.790Z,7.00
2017-12-22T07:02:25.690Z,6.95
2017-12-22T07:04:51.540Z,6.97
2017-12-22T07:07:17.463Z,6.97
2017-12-22T07:09:43.312Z,6.92
2017-12-22T07:12:09.190Z,6.95
2017-12-22T07:14:35.042Z,6.99
2017-12-22T07:17:00.878Z,7.03
2017-12-22T07:19:30.077Z,7.04
2017-12-22T07:21:55.947Z,7.02
2017-12-22T07:24:25.239Z,7.04
2017-12-22T07:26:51.118Z,7.05
2017-12-22T07:29:20.010Z,7.13
2017-12-22T07:31:45.844Z,7.13
2017-12-22T07:34:15.075Z,7.12
2017-12-22T07:36:47.705Z,7.10
2017-12-22T07:39:13.582Z,7.11
2017-12-22T07:41:39.714Z,7.07
2017-12-22T07:44:05.737Z,7.11
2017-12-22T07:46:31.590Z,7.13
2017-12-22T07:48:57.451Z,7.10
2017-12-22T07:51:23.320Z,7.09
2017-12-22T07:53:49.240Z,7.12
2017-12-22T07:56:15.081Z,7.13
2017-12-22T07:59:00.955Z,7.15
2017-12-22T08:01:26.780Z,7.10
2017-12-22T08:03:52.663Z,7.11
2017-12-22T08:06:18.537Z,7.16
2017-12-22T08:08:45.032Z,7.15
2017-12-22T08:11:10.905Z,7.16
2017-12-22T08:13:36.831Z,7.17
2017-12-22T08:16:02.735Z,7.24
2017-12-22T08:18:28.587Z,7.23
2017-12-22T08:21:15.089Z,7.22
2017-12-22T08:23:40.932Z,7.22
2017-12-22T08:26:06.788Z,7.25
2017-12-22T08:28:33.527Z,7.22
2017-12-22T08:30:59.395Z,7.24
2017-12-22T08:33:25.314Z,7.25
2017-12-22T08:35:51.204Z,7.31
2017-12-22T08:38:17.106Z,7.29
2017-12-22T08:40:42.998Z,7.28
2017-12-22T08:43:08.852Z,7.29
2017-12-22T08:45:34.739Z,7.29
2017-12-22T08:48:00.656Z,7.30
2017-12-22T08:50:26.496Z,7.25
2017-12-22T08:52:52.298Z,7.26
2017-12-22T08:55:18.160Z,7.29
2017-12-22T08:57:43.999Z,7.27
2017-12-22T09:00:09.883Z,7.30
2017-12-22T09:02:35.735Z,7.29
2017-12-22T09:05:01.574Z,7.33
2017-12-22T09:07:27.458Z,7.30
2017-12-22T09:09:53.271Z,7.34
2017-12-22T09:12:19.104Z,7.38
2017-12-22T09:14:44.967Z,7.39
2017-12-22T09:17:10.804Z,7.48
2017-12-22T09:19:36.681Z,7.52
2017-12-22T09:22:02.534Z,7.62
2017-12-22T09:24:29.282Z,7.65
2017-12-22T09:26:56.725Z,7.73
2017-12-22T09:29:22.562Z,7.75
2017-12-22T09:31:48.451Z,7.82
2017-12-22T09:34:14.327Z,7.84
2017-12-22T09:36:41.776Z,7.79
2017-12-22T09:39:07.601Z,7.87
2017-12-22T09:41:37.183Z,7.89
2017-12-22T09:44:03.071Z,7.92
2017-12-22T09:46:32.194Z,7.99
2017-12-22T09:48:58.048Z,8.02
2017-12-22T09:51:25.507Z,8.01
2017-12-22T09:53:51.364Z,8.05
2017-12-22T09:56:19.902Z,8.08
2017-12-22T09:58:45.748Z,8.05
2017-12-22T10:01:14.449Z,8.10
2017-12-22T10:03:40.329Z,8.06
2017-12-22T10:06:06.186Z,8.08
2017-12-22T10:08:32.057Z,8.07
2017-12-22T10:10:57.930Z,8.08
2017-12-22T10:13:26.250Z,8.05
2017-12-22T10:15:52.087Z,8.01
2017-12-22T10:18:20.939Z,7.96
2017-12-22T10:20:46.779Z,7.99
2017-12-22T10:23:15.175Z,8.08
2017-12-22T10:25:41.039Z,8.10
2017-12-22T10:28:09.783Z,8.13
2017-12-22T10:30:36.497Z,8.18
2017-12-22T10:33:07.386Z,8.23
2017-12-22T10:35:33.202Z,8.28
2017-12-22T10:38:00.528Z,8.34
2017-12-22T10:40:26.360Z,8.38
2017-12-22T10:42:52.215Z,8.44
2017-12-22T10:45:18.043Z,8.49
2017-12-22T10:47:43.929Z,8.55
2017-12-22T10:50:13.115Z,8.61
2017-12-22T10:52:38.946Z,8.63
2017-12-22T10:55:07.887Z,8.76
2017-12-22T10:57:33.729Z,8.83
2017-12-22T11:00:02.951Z,8.87
2017-12-22T11:02:28.818Z,8.91
2017-12-22T11:04:55.728Z,9.02
2017-12-22T11:07:21.619Z,9.11
2017-12-22T11:09:50.446Z,9.16
2017-12-22T11:12:16.299Z,9.17
2017-12-22T11:14:45.491Z,9.18
2017-12-22T11:17:11.383Z,9.11
2017-12-22T11:19:37.253Z,9.15
2017-12-22T11:22:03.108Z,9.19
2017-12-22T11:24:28.996Z,9.17
2017-12-22T11:26:58.605Z,9.30
2017-12-22T11:29:24.488Z,9.40
2017-12-22T11:31:51.918Z,9.47
2017-12-22T11:34:17.816Z,9.55
2017-12-22T11:36:47.016Z,9.56
2017-12-22T11:39:12.889Z,9.64
2017-12-22T11:41:41.310Z,9.62
2017-12-22T11:44:07.225Z,9.70
2017-12-22T11:46:36.439Z,9.67
2017-12-22T11:49:02.335Z,9.68
2017-12-22T11:51:30.595Z,9.65
2017-12-22T11:53:56.454Z,9.68
2017-12-22T11:56:22.285Z,9.68
2017-12-22T11:58:48.206Z,9.65
2017-12-22T12:01:14.053Z,9.66
2017-12-22T12:03:43.356Z,9.63
2017-12-22T12:06:09.346Z,9.58
2017-12-22T12:08:36.868Z,9.56
2017-12-22T12:11:02.659Z,9.54
2017-12-22T12:13:32.003Z,9.47
2017-12-22T12:15:57.854Z,9.41
2017-12-22T12:18:26.842Z,9.38
2017-12-22T12:20:52.728Z,9.30
2017-12-22T12:23:22.516Z,9.41
2017-12-22T12:25:48.351Z,9.44
2017-12-22T12:28:17.437Z,9.44
2017-12-22T12:30:43.313Z,9.42
2017-12-22T12:33:09.143Z,9.41
2017-12-22T12:35:34.979Z,9.37
2017-12-22T12:38:00.864Z,9.29
2017-12-22T12:40:27.547Z,9.31
2017-12-22T12:42:53.356Z,9.22
2017-12-22T12:45:22.332Z,9.16
2017-12-22T12:47:48.215Z,9.14
2017-12-22T12:50:17.072Z,9.05
2017-12-22T12:52:42.937Z,9.04
2017-12-22T12:55:11.692Z,8.99
2017-12-22T12:57:37.521Z,8.89
2017-12-22T13:00:06.219Z,8.85
2017-12-22T13:02:32.066Z,8.81
2017-12-22T13:05:00.852Z,8.79
2017-12-22T13:07:26.715Z,8.80
2017-12-22T13:09:52.589Z,8.84
2017-12-22T13:12:18.457Z,8.82
2017-12-22T13:14:44.325Z,8.78
2017-12-22T13:17:13.528Z,8.81
2017-12-22T13:19:39.377Z,8.81
2017-12-22T13:22:08.006Z,8.80
2017-12-22T13:24:33.888Z,8.74
2017-12-22T13:27:03.314Z,8.71
2017-12-22T13:29:29.155Z,8.68
2017-12-22T13:31:58.493Z,8.73
2017-12-22T13:34:24.343Z,8.74
2017-12-22T13:36:52.015Z,8.77
2017-12-22T13:39:17.863Z,8.85
2017-12-22T13:41:47.554Z,8.82
2017-12-22T13:44:13.405Z,8.84
2017-12-22T13:46:39.256Z,8.81
2017-12-22T13:49:05.106Z,8.95
2017-12-22T13:51:30.988Z,8.97
2017-12-22T13:53:59.913Z,8.98
2017-12-22T13:56:25.759Z,8.99
2017-12-22T13:58:53.278Z,9.09
2017-12-22T14:01:19.105Z,9.13
2017-12-22T14:03:48.592Z,9.13
2017-12-22T14:06:14.440Z,9.11
2017-12-22T14:08:43.925Z,9.16
2017-12-22T14:11:09.785Z,9.12
2017-12-22T14:13:37.528Z,9.04
2017-12-22T14:16:03.410Z,8.92
2017-12-22T14:18:33.220Z,8.85
2017-12-22T14:20:59.082Z,8.75
2017-12-22T14:23:24.945Z,8.73
2017-12-22T14:25:50.839Z,8.72
2017-12-22T14:28:16.742Z,8.68
2017-12-22T14:30:43.896Z,8.62
2017-12-22T14:33:09.738Z,8.64
2017-12-22T14:35:39.299Z,8.27
2017-12-22T14:38:05.192Z,8.66
2017-12-22T14:40:32.862Z,8.68
2017-12-22T14:42:58.797Z,8.70
2017-12-22T14:45:27.629Z,8.66
2017-12-22T14:47:53.508Z,8.69
2017-12-22T14:50:22.321Z,8.71
2017-12-22T14:52:48.259Z,8.74
2017-12-22T14:55:16.952Z,8.75
2017-12-22T14:57:42.839Z,8.85
2017-12-22T15:00:08.695Z,8.90
2017-12-22T15:02:34.570Z,8.79
2017-12-22T15:05:00.441Z,8.76
2017-12-22T15:07:29.554Z,8.75
2017-12-22T15:09:55.397Z,8.80
2017-12-22T15:12:24.474Z,8.82
2017-12-22T15:14:50.389Z,8.82
2017-12-22T15:17:18.259Z,8.81
2017-12-22T15:19:44.133Z,8.80
2017-12-22T15:22:12.906Z,8.83
2017-12-22T15:24:38.836Z,8.85
2017-12-22T15:27:08.487Z,8.82
2017-12-22T15:29:34.360Z,8.78
2017-12-22T15:32:03.790Z,8.80
2017-12-22T15:34:41.821Z,8.76
2017-12-22T15:37:07.706Z,8.79
2017-12-22T15:39:33.636Z,8.82
2017-12-22T15:41:59.560Z,8.85
2017-12-22T15:44:25.444Z,8.85
2017-12-22T15:46:51.322Z,8.84
2017-12-22T15:49:17.228Z,8.81
2017-12-22T15:51:43.353Z,8.84
2017-12-22T15:54:09.234Z,8.86
2017-12-22T15:56:35.208Z,8.86
2017-12-22T15:59:01.092Z,8.87
2017-12-22T16:01:27.014Z,8.82
2017-12-22T16:03:53.026Z,8.86
2017-12-22T16:06:18.910Z,8.90
2017-12-22T16:08:48.207Z,8.88
2017-12-22T16:11:14.125Z,8.85
2017-12-22T16:13:40.036Z,8.84
2017-12-22T16:16:05.944Z,8.88
2017-12-22T16:18:31.817Z,8.84
2017-12-22T16:21:00.875Z,8.83
2017-12-22T16:23:26.726Z,8.82
2017-12-22T16:25:55.741Z,8.85
2017-12-22T16:28:21.610Z,8.83
2017-12-22T16:30:49.086Z,8.81
2017-12-22T16:33:15.006Z,8.83
2017-12-22T16:35:44.214Z,8.85
2017-12-22T16:38:10.159Z,8.79
2017-12-22T16:40:40.093Z,8.78
2017-12-22T16:43:05.967Z,8.75
2017-12-22T16:45:33.336Z,8.61
2017-12-22T16:47:59.276Z,8.50
2017-12-22T16:50:25.183Z,8.52
2017-12-22T16:52:51.105Z,8.49
2017-12-22T16:55:16.974Z,8.44
2017-12-22T16:57:46.700Z,8.40
2017-12-22T17:00:12.613Z,8.33
2017-12-22T17:02:39.924Z,8.34
2017-12-22T17:05:05.852Z,8.31
2017-12-22T17:07:35.335Z,8.29
2017-12-22T17:10:01.261Z,8.34
2017-12-22T17:12:30.784Z,8.33
2017-12-22T17:14:56.751Z,8.36
2017-12-22T17:17:23.751Z,8.33
2017-12-22T17:19:49.670Z,8.36
2017-12-22T17:22:18.445Z,8.38
2017-12-22T17:24:44.362Z,8.44
2017-12-22T17:27:10.253Z,8.42
2017-12-22T17:29:36.144Z,8.46
2017-12-22T17:32:02.006Z,8.50
2017-12-22T17:34:31.084Z,8.52
2017-12-22T17:36:57.004Z,8.49
2017-12-22T17:39:25.049Z,8.55
2017-12-22T17:41:50.965Z,8.54
2017-12-22T17:44:19.641Z,8.57
2017-12-22T17:46:45.530Z,8.63
2017-12-22T17:52:01.428Z,8.66
2017-12-22T17:54:27.258Z,8.70
2017-12-22T17:56:53.150Z,8.70
2017-12-22T17:59:19.021Z,8.74
2017-12-22T18:01:44.846Z,8.76
2017-12-22T18:04:10.674Z,8.77
2017-12-22T18:06:36.587Z,8.77
2017-12-22T18:09:02.477Z,8.80
2017-12-22T18:11:28.387Z,8.77
2017-12-22T18:13:54.244Z,8.77
2017-12-22T18:16:20.150Z,8.82
2017-12-22T18:18:45.977Z,8.80
2017-12-22T18:21:15.800Z,8.81
2017-12-22T18:23:41.609Z,8.82
2017-12-22T18:26:07.479Z,8.86
2017-12-22T18:28:33.354Z,8.85
2017-12-22T18:30:59.207Z,8.80
2017-12-22T18:33:25.284Z,8.86
2017-12-22T18:35:51.103Z,8.86
2017-12-22T18:38:16.947Z,8.80
2017-12-22T18:40:42.785Z,8.79
2017-12-22T18:43:08.660Z,8.72
2017-12-22T18:45:34.534Z,8.76
2017-12-22T18:48:00.759Z,8.80
2017-12-22T18:50:26.619Z,8.79
2017-12-22T18:52:55.425Z,8.79
2017-12-22T18:55:21.242Z,8.81
2017-12-22T18:57:49.875Z,8.84
2017-12-22T19:00:15.769Z,8.87
2017-12-22T19:05:12.594Z,8.82
2017-12-22T19:07:39.930Z,8.84
2017-12-22T19:10:05.802Z,8.84
2017-12-22T19:12:34.966Z,8.83
2017-12-22T19:15:00.799Z,8.78
2017-12-22T19:17:26.637Z,8.77
2017-12-22T19:19:52.508Z,8.81
2017-12-22T19:22:18.522Z,8.81
2017-12-22T19:24:46.049Z,8.80
2017-12-22T19:27:11.944Z,8.78
2017-12-22T19:29:41.182Z,8.80
2017-12-22T19:32:07.045Z,8.82
2017-12-22T19:34:35.621Z,8.82
2017-12-22T19:37:01.431Z,8.80
2017-12-22T19:39:31.095Z,8.80
2017-12-22T19:41:56.922Z,8.80
2017-12-22T19:44:25.915Z,8.83
2017-12-22T19:46:51.792Z,8.83
2017-12-22T19:49:19.872Z,8.86
2017-12-22T19:51:45.724Z,8.86
2017-12-22T19:54:11.581Z,8.85
2017-12-22T19:56:37.474Z,8.88
2017-12-22T19:59:03.327Z,8.91
2017-12-22T20:01:32.434Z,8.93
2017-12-22T20:03:58.316Z,8.95
2017-12-22T20:06:27.567Z,8.89
2017-12-22T20:08:53.418Z,8.84
2017-12-22T20:11:20.884Z,8.84
2017-12-22T20:13:46.739Z,8.80
2017-12-22T20:16:15.684Z,8.81
2017-12-22T20:18:41.508Z,8.78
2017-12-22T20:21:10.010Z,8.90
2017-12-22T20:23:35.836Z,8.92
2017-12-22T20:28:32.556Z,8.96
2017-12-22T20:30:58.409Z,9.00
2017-12-22T20:33:24.278Z,9.00
2017-12-22T20:35:50.123Z,8.93
2017-12-22T20:38:16.904Z,8.91
2017-12-22T20:40:42.748Z,8.95
2017-12-22T20:43:12.102Z,8.93
2017-12-22T20:45:37.956Z,8.84
2017-12-22T20:48:07.044Z,8.80
2017-12-22T20:50:32.930Z,8.84
2017-12-22T20:53:02.381Z,8.83
2017-12-22T20:55:28.211Z,8.74
2017-12-22T20:57:55.556Z,8.76
2017-12-22T21:00:21.406Z,8.76
2017-12-22T21:02:51.527Z,8.65
2017-12-22T21:05:17.360Z,8.71
2017-12-22T21:07:43.223Z,8.64
2017-12-22T21:10:09.081Z,8.63
2017-12-22T21:12:34.899Z,8.67
2017-12-22T21:15:03.830Z,8.62
2017-12-22T21:17:29.679Z,8.57
2017-12-22T21:19:56.861Z,8.58
2017-12-22T21:22:22.721Z,8.56
2017-12-22T21:24:52.025Z,8.57
2017-12-22T21:30:08.185Z,8.62
2017-12-22T21:32:34.031Z,8.66
2017-12-22T21:34:59.956Z,8.68
2017-12-22T21:37:25.888Z,8.70
2017-12-22T21:39:51.742Z,8.59
2017-12-22T21:42:17.667Z,8.69
2017-12-22T21:44:43.560Z,8.75
2017-12-22T21:47:09.443Z,8.74
2017-12-22T21:49:35.325Z,8.78
2017-12-22T21:52:01.169Z,8.77
2017-12-22T21:54:27.051Z,8.81
2017-12-22T21:56:52.900Z,8.81
2017-12-22T21:59:18.800Z,8.76
2017-12-22T22:01:44.657Z,8.80
2017-12-22T22:04:10.518Z,8.81
2017-12-22T22:06:36.383Z,8.79
2017-12-22T22:09:02.279Z,8.80
2017-12-22T22:11:28.149Z,8.74
2017-12-22T22:13:54.066Z,8.73
2017-12-22T22:16:21.505Z,8.70
2017-12-22T22:18:47.386Z,8.73
2017-12-22T22:21:13.251Z,8.79
2017-12-22T22:23:39.151Z,8.82
2017-12-22T22:26:05.017Z,8.87
2017-12-22T22:28:34.274Z,8.91
2017-12-22T22:31:00.148Z,8.87
2017-12-22T22:33:27.455Z,8.87
2017-12-22T22:35:53.277Z,8.85
2017-12-22T22:38:22.323Z,8.90
2017-12-22T22:40:48.246Z,8.89
2017-12-22T22:43:17.793Z,8.98
2017-12-22T22:45:43.685Z,9.02
2017-12-22T22:48:13.426Z,8.99
2017-12-22T22:50:39.318Z,9.02
2017-12-22T22:53:05.939Z,8.95
2017-12-22T22:58:21.997Z,8.88
2017-12-22T23:00:47.926Z,8.88
2017-12-22T23:03:13.816Z,8.92
2017-12-22T23:05:39.714Z,8.91
2017-12-22T23:08:05.602Z,8.96
2017-12-22T23:10:31.486Z,8.92
2017-12-22T23:12:57.429Z,8.87
2017-12-22T23:15:23.280Z,8.86
2017-12-22T23:17:49.189Z,8.82
2017-12-22T23:20:15.080Z,8.83
2017-12-22T23:22:40.970Z,8.85
2017-12-22T23:25:06.841Z,8.78
2017-12-22T23:27:32.754Z,8.78
2017-12-22T23:29:59.246Z,8.84
2017-12-22T23:32:25.138Z,8.91
2017-12-22T23:34:51.024Z,8.84
2017-12-22T23:37:16.930Z,8.88
2017-12-22T23:39:42.800Z,8.89
2017-12-22T23:42:08.712Z,8.90
2017-12-22T23:44:34.679Z,8.91
2017-12-22T23:47:00.523Z,8.94
2017-12-22T23:49:26.438Z,8.90
2017-12-22T23:51:52.720Z,8.87
2017-12-22T23:54:18.593Z,8.80
2017-12-22T23:56:47.499Z,8.77
2017-12-22T23:59:13.397Z,8.68
